createdAt,value
2023-07-21T00:00:42.802Z,26.84
2023-07-21T00:01:44.626Z,26.83
2023-07-21T00:02:46.915Z,26.77
2023-07-21T00:03:49.666Z,26.77
2023-07-21T00:04:51.521Z,26.66
2023-07-21T00:05:54.894Z,26.65
2023-07-21T00:06:56.703Z,26.64
2023-07-21T00:07:58.491Z,26.62
2023-07-21T00:09:00.252Z,26.61
2023-07-21T00:10:09.730Z,26.62
2023-07-21T00:11:11.547Z,26.59
2023-07-21T00:12:13.373Z,26.51
2023-07-21T00:13:15.378Z,26.49
2023-07-21T00:14:18.000Z,26.52
2023-07-21T00:15:20.266Z,26.56
2023-07-21T00:16:22.281Z,26.53
2023-07-21T00:17:24.444Z,26.55
2023-07-21T00:18:26.338Z,26.51
2023-07-21T00:19:28.466Z,26.52
2023-07-21T00:20:33.936Z,26.47
2023-07-21T00:21:36.125Z,26.50
2023-07-21T00:22:39.224Z,26.43
2023-07-21T00:23:41.141Z,26.30
2023-07-21T00:24:42.992Z,26.40
2023-07-21T00:25:48.101Z,26.39
2023-07-21T00:26:49.987Z,26.38
2023-07-21T00:27:51.759Z,26.35
2023-07-21T00:28:53.702Z,26.32
2023-07-21T00:29:55.424Z,26.27
2023-07-21T00:30:57.377Z,26.21
2023-07-21T00:31:59.274Z,26.18
2023-07-21T00:33:02.029Z,26.16
2023-07-21T00:34:09.593Z,26.11
2023-07-21T00:35:11.691Z,26.09
2023-07-21T00:36:13.842Z,26.08
2023-07-21T00:37:16.811Z,26.02
2023-07-21T00:38:18.594Z,26.01
2023-07-21T00:39:20.719Z,25.98
2023-07-21T00:40:24.653Z,25.98
2023-07-21T00:41:26.626Z,25.97
2023-07-21T00:42:28.349Z,25.93
2023-07-21T00:43:30.156Z,25.92
2023-07-21T00:44:31.904Z,25.88
2023-07-21T00:45:40.833Z,25.84
2023-07-21T00:46:43.333Z,25.81
2023-07-21T00:47:46.083Z,25.75
2023-07-21T00:48:47.982Z,25.79
2023-07-21T00:49:50.241Z,25.79
2023-07-21T00:50:53.628Z,25.73
2023-07-21T00:51:55.437Z,25.74
2023-07-21T00:53:00.027Z,25.71
2023-07-21T00:54:02.359Z,25.72
2023-07-21T00:55:04.947Z,25.71
2023-07-21T00:56:06.765Z,25.67
2023-07-21T00:57:08.688Z,25.69
2023-07-21T00:58:11.272Z,25.67
2023-07-21T00:59:13.091Z,25.67
2023-07-21T01:00:14.943Z,25.66
2023-07-21T01:01:16.764Z,25.69
2023-07-21T01:02:19.378Z,25.65
2023-07-21T01:03:21.832Z,25.68
2023-07-21T01:04:24.593Z,25.69
2023-07-21T01:05:26.798Z,25.66
2023-07-21T01:06:29.249Z,25.69
2023-07-21T01:07:32.566Z,25.64
2023-07-21T01:08:34.934Z,25.69
2023-07-21T01:09:38.397Z,25.74
2023-07-21T01:10:41.864Z,25.72
2023-07-21T01:11:43.791Z,25.74
2023-07-21T01:12:45.543Z,25.75
2023-07-21T01:13:47.425Z,25.74
2023-07-21T01:14:49.167Z,25.77
2023-07-21T01:15:53.362Z,25.78
2023-07-21T01:16:56.602Z,25.78
2023-07-21T01:18:00.226Z,25.76
2023-07-21T01:19:02.552Z,25.78
2023-07-21T01:20:05.954Z,25.73
2023-07-21T01:21:11.101Z,25.80
2023-07-21T01:22:48.792Z,25.79
2023-07-21T01:24:01.648Z,25.78
2023-07-21T01:25:08.510Z,25.80
2023-07-21T01:26:12.991Z,25.76
2023-07-21T01:27:17.003Z,25.75
2023-07-21T01:28:19.967Z,25.76
2023-07-21T01:29:24.883Z,25.79
2023-07-21T01:30:27.742Z,25.77
2023-07-21T01:31:30.057Z,25.69
2023-07-21T01:32:34.438Z,25.68
2023-07-21T01:33:37.234Z,25.59
2023-07-21T01:34:40.639Z,25.47
2023-07-21T01:35:43.213Z,25.27
2023-07-21T01:36:46.219Z,25.18
2023-07-21T01:37:48.809Z,25.04
2023-07-21T01:38:51.366Z,24.81
2023-07-21T01:39:54.435Z,24.68
2023-07-21T01:40:56.646Z,24.65
2023-07-21T01:42:01.877Z,24.64
2023-07-21T01:43:03.813Z,24.66
2023-07-21T01:44:06.288Z,24.68
2023-07-21T01:45:08.668Z,24.64
2023-07-21T01:46:12.273Z,24.50
2023-07-21T01:47:14.130Z,24.45
2023-07-21T01:48:15.984Z,24.49
2023-07-21T01:49:19.181Z,24.44
2023-07-21T01:50:21.364Z,24.43
2023-07-21T01:51:23.825Z,24.45
2023-07-21T01:52:36.634Z,24.43
2023-07-21T01:53:40.871Z,24.41
2023-07-21T01:54:46.343Z,24.39
2023-07-21T01:55:59.080Z,24.42
2023-07-21T01:57:06.585Z,24.35
2023-07-21T01:58:09.413Z,24.34
2023-07-21T01:59:16.392Z,24.31
2023-07-21T02:00:19.920Z,24.32
2023-07-21T02:01:22.702Z,24.21
2023-07-21T02:02:24.640Z,24.19
2023-07-21T02:03:28.079Z,24.09
2023-07-21T02:04:30.057Z,23.97
2023-07-21T02:05:31.937Z,23.85
2023-07-21T02:06:33.879Z,23.74
2023-07-21T02:07:36.744Z,23.63
2023-07-21T02:08:38.777Z,23.68
2023-07-21T02:09:40.504Z,23.73
2023-07-21T02:10:42.602Z,23.71
2023-07-21T02:11:50.159Z,23.61
2023-07-21T02:12:53.114Z,23.53
2023-07-21T02:13:54.929Z,23.50
2023-07-21T02:14:56.661Z,23.42
2023-07-21T02:15:58.378Z,23.47
2023-07-21T02:17:00.146Z,23.51
2023-07-21T02:18:01.960Z,23.56
2023-07-21T02:19:03.963Z,23.60
2023-07-21T02:20:10.628Z,23.59
2023-07-21T02:21:12.421Z,23.53
2023-07-21T02:22:14.145Z,23.45
2023-07-21T02:23:16.673Z,23.38
2023-07-21T02:24:18.482Z,23.32
2023-07-21T02:25:20.373Z,23.37
2023-07-21T02:26:23.276Z,23.34
2023-07-21T02:27:25.445Z,23.28
2023-07-21T02:28:27.354Z,23.26
2023-07-21T02:29:29.088Z,23.32
2023-07-21T02:30:30.839Z,23.22
2023-07-21T02:31:32.724Z,23.31
2023-07-21T02:32:34.748Z,23.36
2023-07-21T02:33:36.622Z,23.41
2023-07-21T02:34:40.387Z,23.42
2023-07-21T02:35:42.123Z,23.44
2023-07-21T02:36:45.020Z,23.47
2023-07-21T02:37:46.908Z,23.44
2023-07-21T02:38:49.298Z,23.33
2023-07-21T02:39:51.677Z,23.32
2023-07-21T02:40:53.585Z,23.23
2023-07-21T02:41:55.349Z,23.25
2023-07-21T02:42:57.075Z,23.24
2023-07-21T02:43:59.113Z,23.30
2023-07-21T02:45:00.918Z,23.36
2023-07-21T02:46:03.343Z,23.43
2023-07-21T02:47:05.503Z,23.47
2023-07-21T02:48:11.323Z,23.50
2023-07-21T02:49:13.097Z,23.51
2023-07-21T02:50:16.916Z,23.51
2023-07-21T02:51:18.698Z,23.55
2023-07-21T02:52:20.543Z,23.57
2023-07-21T02:53:22.484Z,23.58
2023-07-21T02:54:24.215Z,23.61
2023-07-21T02:55:26.003Z,23.56
2023-07-21T02:56:28.259Z,23.63
2023-07-21T02:57:32.678Z,23.66
2023-07-21T02:58:34.431Z,23.61
2023-07-21T02:59:36.733Z,23.57
2023-07-21T03:00:38.744Z,23.63
2023-07-21T03:01:40.621Z,23.66
2023-07-21T03:02:43.874Z,23.64
2023-07-21T03:03:46.017Z,23.66
2023-07-21T03:04:48.070Z,23.66
2023-07-21T03:05:49.828Z,23.67
2023-07-21T03:06:51.731Z,23.66
2023-07-21T03:07:53.602Z,23.67
2023-07-21T03:08:55.357Z,23.67
2023-07-21T03:09:57.138Z,23.68
2023-07-21T03:10:59.162Z,23.67
2023-07-21T03:12:01.102Z,23.66
2023-07-21T03:13:02.962Z,23.66
2023-07-21T03:14:04.692Z,23.67
2023-07-21T03:15:07.467Z,23.64
2023-07-21T03:16:09.267Z,23.66
2023-07-21T03:17:13.533Z,23.66
2023-07-21T03:18:15.440Z,23.65
2023-07-21T03:19:17.198Z,23.63
2023-07-21T03:20:19.039Z,23.60
2023-07-21T03:21:20.961Z,23.60
2023-07-21T03:22:22.772Z,23.55
2023-07-21T03:23:24.906Z,23.50
2023-07-21T03:24:26.714Z,23.51
2023-07-21T03:25:29.953Z,23.49
2023-07-21T03:26:31.700Z,23.49
2023-07-21T03:27:36.833Z,23.50
2023-07-21T03:28:39.366Z,23.44
2023-07-21T03:29:41.164Z,23.38
2023-07-21T03:30:42.964Z,23.40
2023-07-21T03:31:44.813Z,23.38
2023-07-21T03:32:47.170Z,23.41
2023-07-21T03:33:49.146Z,23.39
2023-07-21T03:34:52.342Z,23.35
2023-07-21T03:36:05.533Z,23.36
2023-07-21T03:37:09.873Z,23.38
2023-07-21T03:38:12.039Z,23.42
2023-07-21T03:39:13.774Z,23.45
2023-07-21T03:40:16.749Z,23.47
2023-07-21T03:41:18.698Z,23.52
2023-07-21T03:42:20.652Z,23.57
2023-07-21T03:43:22.386Z,23.64
2023-07-21T03:44:24.093Z,23.69
2023-07-21T03:45:27.259Z,23.75
2023-07-21T03:46:29.448Z,23.80
2023-07-21T03:47:38.169Z,23.92
2023-07-21T03:48:40.012Z,24.01
2023-07-21T03:49:41.739Z,24.05
2023-07-21T03:50:43.469Z,24.12
2023-07-21T03:51:45.200Z,24.20
2023-07-21T03:52:46.953Z,24.25
2023-07-21T03:53:48.707Z,24.31
2023-07-21T03:54:53.105Z,24.37
2023-07-21T03:55:55.441Z,24.40
2023-07-21T03:56:57.188Z,24.52
2023-07-21T03:57:58.926Z,24.61
2023-07-21T03:59:01.314Z,24.71
2023-07-21T04:00:04.394Z,24.80
2023-07-21T04:01:06.259Z,24.89
2023-07-21T04:02:08.092Z,24.99
2023-07-21T04:03:10.458Z,25.08
2023-07-21T04:04:12.397Z,25.20
2023-07-21T04:05:14.654Z,25.26
2023-07-21T04:06:19.248Z,25.38
2023-07-21T04:07:22.744Z,25.51
2023-07-21T04:08:24.714Z,25.62
2023-07-21T04:09:26.494Z,25.73
2023-07-21T04:10:28.257Z,25.78
2023-07-21T04:11:29.995Z,25.85
2023-07-21T04:12:31.779Z,25.93
2023-07-21T04:13:34.334Z,26.00
2023-07-21T04:14:36.220Z,26.11
2023-07-21T04:15:40.411Z,26.23
2023-07-21T04:16:42.443Z,26.35
2023-07-21T04:17:44.936Z,26.45
2023-07-21T04:18:46.708Z,26.56
2023-07-21T04:19:48.462Z,26.66
2023-07-21T04:20:50.627Z,26.76
2023-07-21T04:21:52.650Z,26.84
2023-07-21T04:22:54.416Z,26.97
2023-07-21T04:23:56.142Z,27.05
2023-07-21T04:24:57.876Z,27.22
2023-07-21T04:25:59.630Z,27.39
2023-07-21T04:27:01.341Z,27.49
2023-07-21T04:28:06.954Z,27.64
2023-07-21T04:29:11.343Z,27.72
2023-07-21T04:30:20.195Z,27.93
2023-07-21T04:31:23.667Z,28.10
2023-07-21T04:32:25.645Z,28.23
2023-07-21T04:33:27.362Z,28.34
2023-07-21T04:34:29.098Z,28.54
2023-07-21T04:35:30.854Z,28.73
2023-07-21T04:36:32.617Z,28.91
2023-07-21T04:37:37.292Z,29.01
2023-07-21T04:38:39.022Z,29.12
2023-07-21T04:39:41.271Z,29.25
2023-07-21T04:40:45.668Z,29.40
2023-07-21T04:41:47.478Z,29.54
2023-07-21T04:42:49.320Z,29.66
2023-07-21T04:43:51.119Z,29.79
2023-07-21T04:44:52.912Z,29.88
2023-07-21T04:45:55.763Z,30.08
2023-07-21T04:46:57.515Z,30.10
2023-07-21T04:47:59.346Z,30.34
2023-07-21T04:49:02.127Z,30.43
2023-07-21T04:50:04.033Z,30.56
2023-07-21T04:51:05.845Z,30.68
2023-07-21T04:52:07.893Z,30.78
2023-07-21T04:53:10.788Z,30.87
2023-07-21T04:54:13.279Z,30.88
2023-07-21T04:55:16.312Z,30.78
2023-07-21T04:56:18.089Z,30.78
2023-07-21T04:57:19.867Z,30.73
2023-07-21T04:58:21.583Z,30.73
2023-07-21T04:59:23.387Z,30.70
2023-07-21T05:00:25.191Z,30.79
2023-07-21T05:01:27.529Z,30.91
2023-07-21T05:02:32.467Z,31.03
2023-07-21T05:03:34.382Z,31.18
2023-07-21T05:04:36.302Z,31.43
2023-07-21T05:05:40.033Z,31.54
2023-07-21T05:06:44.398Z,31.65
2023-07-21T05:07:46.211Z,31.73
2023-07-21T05:08:47.954Z,31.84
2023-07-21T05:09:49.886Z,31.94
2023-07-21T05:10:54.575Z,32.03
2023-07-21T05:11:57.504Z,32.06
2023-07-21T05:13:01.269Z,32.21
2023-07-21T05:14:04.735Z,32.29
2023-07-21T05:15:07.452Z,32.37
2023-07-21T05:16:09.182Z,32.41
2023-07-21T05:17:10.950Z,32.50
2023-07-21T05:18:12.912Z,32.61
2023-07-21T05:19:14.657Z,32.71
2023-07-21T05:20:16.406Z,32.81
2023-07-21T05:21:18.588Z,32.95
2023-07-21T05:22:21.198Z,33.08
2023-07-21T05:23:23.127Z,33.27
2023-07-21T05:24:24.925Z,33.42
2023-07-21T05:25:26.685Z,33.41
2023-07-21T05:26:29.576Z,33.42
2023-07-21T05:27:31.368Z,33.51
2023-07-21T05:28:33.276Z,33.59
2023-07-21T05:29:35.483Z,33.69
2023-07-21T05:30:41.904Z,33.66
2023-07-21T05:31:45.813Z,33.72
2023-07-21T05:32:48.683Z,33.82
2023-07-21T05:33:51.765Z,33.78
2023-07-21T05:34:53.616Z,33.73
2023-07-21T05:36:05.390Z,33.77
2023-07-21T05:37:07.455Z,33.88
2023-07-21T05:38:10.851Z,34.02
2023-07-21T05:39:12.667Z,34.08
2023-07-21T05:40:14.473Z,34.14
2023-07-21T05:41:17.997Z,34.25
2023-07-21T05:42:19.785Z,34.40
2023-07-21T05:43:21.755Z,34.59
2023-07-21T05:44:24.258Z,34.74
2023-07-21T05:45:26.040Z,34.86
2023-07-21T05:46:28.018Z,34.88
2023-07-21T05:47:30.141Z,34.91
2023-07-21T05:48:31.905Z,34.96
2023-07-21T05:49:34.925Z,35.07
2023-07-21T05:50:38.593Z,35.19
2023-07-21T05:51:40.388Z,35.28
2023-07-21T05:52:42.180Z,35.40
2023-07-21T05:53:43.956Z,35.55
2023-07-21T05:54:45.831Z,35.75
2023-07-21T05:55:47.996Z,35.89
2023-07-21T05:56:49.725Z,36.06
2023-07-21T05:57:51.442Z,36.06
2023-07-21T05:58:53.178Z,36.23
2023-07-21T05:59:54.986Z,36.25
2023-07-21T06:00:56.781Z,36.35
2023-07-21T06:02:00.165Z,36.43
2023-07-21T06:03:02.002Z,36.56
2023-07-21T06:04:05.378Z,36.69
2023-07-21T06:05:07.697Z,36.79
2023-07-21T06:06:10.881Z,36.95
2023-07-21T06:07:12.705Z,36.97
2023-07-21T06:08:14.438Z,36.87
2023-07-21T06:09:16.190Z,36.82
2023-07-21T06:10:18.038Z,36.88
2023-07-21T06:11:19.806Z,36.89
2023-07-21T06:12:23.947Z,36.84
2023-07-21T06:13:25.710Z,36.84
2023-07-21T06:14:27.454Z,36.89
2023-07-21T06:15:29.173Z,36.89
2023-07-21T06:16:31.569Z,36.79
2023-07-21T06:17:33.651Z,36.70
2023-07-21T06:18:36.836Z,36.49
2023-07-21T06:19:38.664Z,36.25
2023-07-21T06:20:40.405Z,36.12
2023-07-21T06:21:42.369Z,36.07
2023-07-21T06:22:44.123Z,35.82
2023-07-21T06:23:45.900Z,35.65
2023-07-21T06:24:47.765Z,35.84
2023-07-21T06:25:49.594Z,36.08
2023-07-21T06:26:51.346Z,36.27
2023-07-21T06:27:53.162Z,36.37
2023-07-21T06:28:54.952Z,36.45
2023-07-21T06:29:59.651Z,36.60
2023-07-21T06:31:01.623Z,36.76
2023-07-21T06:32:03.509Z,36.96
2023-07-21T06:33:09.140Z,37.03
2023-07-21T06:34:10.997Z,36.89
2023-07-21T06:35:12.781Z,36.80
2023-07-21T06:36:14.578Z,36.88
2023-07-21T06:37:16.550Z,36.91
2023-07-21T06:38:18.277Z,36.75
2023-07-21T06:39:20.000Z,36.61
2023-07-21T06:40:21.756Z,36.68
2023-07-21T06:41:25.928Z,36.67
2023-07-21T06:42:29.205Z,36.87
2023-07-21T06:43:30.955Z,36.97
2023-07-21T06:44:33.832Z,37.00
2023-07-21T06:45:40.732Z,37.30
2023-07-21T06:46:47.000Z,37.55
2023-07-21T06:47:48.783Z,37.42
2023-07-21T06:48:50.589Z,37.26
2023-07-21T06:49:52.348Z,36.97
2023-07-21T06:50:54.064Z,36.80
2023-07-21T06:51:55.811Z,36.55
2023-07-21T06:52:57.595Z,36.56
2023-07-21T06:53:59.348Z,36.87
2023-07-21T06:55:01.253Z,36.98
2023-07-21T06:56:03.145Z,37.21
2023-07-21T06:57:06.569Z,37.20
2023-07-21T06:58:10.109Z,37.14
2023-07-21T06:59:12.298Z,37.06
2023-07-21T07:00:16.007Z,36.92
2023-07-21T07:01:20.617Z,36.83
2023-07-21T07:02:22.608Z,36.48
2023-07-21T07:03:24.748Z,36.37
2023-07-21T07:04:27.309Z,36.48
2023-07-21T07:05:30.299Z,36.70
2023-07-21T07:06:32.104Z,36.81
2023-07-21T07:07:33.862Z,36.88
2023-07-21T07:08:35.825Z,37.02
2023-07-21T07:09:38.100Z,37.18
2023-07-21T07:10:40.385Z,37.02
2023-07-21T07:11:42.181Z,36.79
2023-07-21T07:12:43.951Z,36.95
2023-07-21T07:13:45.687Z,37.12
2023-07-21T07:14:47.834Z,37.30
2023-07-21T07:15:54.478Z,37.40
2023-07-21T07:16:56.263Z,37.06
2023-07-21T07:17:58.178Z,36.97
2023-07-21T07:18:59.961Z,36.77
2023-07-21T07:20:01.893Z,36.86
2023-07-21T07:21:04.820Z,37.04
2023-07-21T07:22:10.145Z,37.37
2023-07-21T07:23:12.555Z,37.59
2023-07-21T07:24:14.853Z,37.43
2023-07-21T07:25:16.811Z,37.55
2023-07-21T07:26:19.015Z,37.67
2023-07-21T07:27:20.821Z,37.74
2023-07-21T07:28:23.226Z,37.90
2023-07-21T07:29:25.020Z,38.00
2023-07-21T07:30:28.349Z,37.95
2023-07-21T07:31:32.879Z,37.77
2023-07-21T07:32:36.865Z,37.47
2023-07-21T07:33:38.620Z,37.29
2023-07-21T07:34:42.406Z,37.17
2023-07-21T07:35:52.317Z,36.93
2023-07-21T07:36:55.971Z,36.79
2023-07-21T07:37:57.858Z,36.76
2023-07-21T07:39:05.104Z,36.67
2023-07-21T07:40:08.025Z,36.64
2023-07-21T07:41:11.151Z,36.52
2023-07-21T07:42:13.140Z,36.38
2023-07-21T07:43:15.886Z,36.73
2023-07-21T07:44:17.631Z,37.24
2023-07-21T07:45:19.392Z,36.93
2023-07-21T07:46:21.309Z,36.88
2023-07-21T07:47:24.188Z,36.88
2023-07-21T07:48:26.458Z,36.89
2023-07-21T07:49:29.464Z,36.66
2023-07-21T07:50:31.283Z,36.81
2023-07-21T07:51:33.040Z,37.12
2023-07-21T07:52:34.851Z,37.15
2023-07-21T07:53:37.715Z,37.16
2023-07-21T07:54:39.451Z,37.26
2023-07-21T07:55:42.769Z,37.10
2023-07-21T07:56:44.520Z,37.14
2023-07-21T07:57:46.367Z,37.49
2023-07-21T07:58:48.659Z,37.53
2023-07-21T07:59:51.949Z,37.49
2023-07-21T08:00:58.541Z,37.47
2023-07-21T08:02:00.392Z,37.62
2023-07-21T08:03:06.878Z,37.66
2023-07-21T08:04:08.778Z,37.95
2023-07-21T08:05:11.554Z,38.16
2023-07-21T08:06:14.381Z,37.89
2023-07-21T08:07:16.119Z,38.10
2023-07-21T08:08:19.649Z,37.92
2023-07-21T08:09:23.550Z,37.78
2023-07-21T08:10:28.841Z,38.03
2023-07-21T08:11:30.596Z,38.12
2023-07-21T08:12:32.406Z,38.26
2023-07-21T08:13:34.827Z,38.05
2023-07-21T08:14:36.605Z,37.72
2023-07-21T08:15:45.854Z,37.74
2023-07-21T08:16:47.755Z,37.98
2023-07-21T08:17:53.160Z,38.05
2023-07-21T08:18:54.941Z,38.16
2023-07-21T08:19:57.829Z,38.23
2023-07-21T08:20:59.536Z,38.38
2023-07-21T08:22:08.506Z,38.61
2023-07-21T08:23:23.465Z,38.70
2023-07-21T08:24:32.725Z,38.70
2023-07-21T08:25:34.540Z,38.76
2023-07-21T08:26:36.261Z,38.74
2023-07-21T08:27:38.097Z,38.50
2023-07-21T08:28:39.823Z,38.40
2023-07-21T08:29:41.560Z,38.26
2023-07-21T08:30:56.616Z,38.31
2023-07-21T08:32:00.475Z,38.34
2023-07-21T08:33:05.636Z,37.87
2023-07-21T08:34:08.705Z,37.95
2023-07-21T08:35:11.273Z,38.06
2023-07-21T08:36:13.040Z,38.18
2023-07-21T08:37:14.817Z,38.25
2023-07-21T08:38:16.564Z,38.26
2023-07-21T08:39:18.757Z,38.27
2023-07-21T08:40:21.255Z,38.40
2023-07-21T08:41:24.281Z,38.62
2023-07-21T08:42:27.250Z,38.57
2023-07-21T08:43:31.118Z,38.44
2023-07-21T08:44:33.540Z,38.45
2023-07-21T08:45:36.313Z,38.49
2023-07-21T08:46:38.209Z,38.41
2023-07-21T08:47:39.982Z,38.32
2023-07-21T08:48:42.115Z,38.12
2023-07-21T08:49:43.912Z,37.94
2023-07-21T08:50:49.514Z,37.93
2023-07-21T08:51:51.355Z,38.15
2023-07-21T08:52:53.118Z,37.96
2023-07-21T08:53:55.806Z,38.02
2023-07-21T08:54:57.571Z,38.33
2023-07-21T08:56:02.141Z,38.45
2023-07-21T08:57:04.317Z,38.54
2023-07-21T08:58:07.422Z,38.65
2023-07-21T08:59:12.410Z,38.70
2023-07-21T09:00:16.328Z,38.79
2023-07-21T09:01:18.287Z,38.62
2023-07-21T09:02:38.336Z,38.35
2023-07-21T09:03:46.798Z,38.17
2023-07-21T09:04:48.706Z,38.05
2023-07-21T09:05:52.009Z,37.84
2023-07-21T09:06:55.698Z,38.08
2023-07-21T09:07:57.557Z,38.03
2023-07-21T09:08:59.564Z,38.06
2023-07-21T09:10:01.295Z,38.10
2023-07-21T09:11:04.540Z,38.36
2023-07-21T09:12:12.929Z,38.37
2023-07-21T09:13:17.178Z,38.31
2023-07-21T09:14:18.934Z,38.33
2023-07-21T09:15:20.709Z,38.45
2023-07-21T09:16:22.651Z,38.47
2023-07-21T09:17:25.422Z,38.62
2023-07-21T09:18:41.906Z,38.89
2023-07-21T09:19:46.645Z,39.07
2023-07-21T09:20:49.200Z,38.92
2023-07-21T09:21:57.779Z,38.83
2023-07-21T09:22:59.680Z,38.85
2023-07-21T09:24:03.790Z,38.62
2023-07-21T09:25:06.152Z,38.69
2023-07-21T09:26:07.931Z,38.24
2023-07-21T09:27:17.597Z,38.14
2023-07-21T09:28:19.363Z,38.13
2023-07-21T09:29:21.093Z,38.05
2023-07-21T09:30:23.610Z,37.87
2023-07-21T09:31:38.469Z,38.00
2023-07-21T09:32:41.731Z,37.90
2023-07-21T09:33:47.566Z,38.00
2023-07-21T09:35:00.333Z,37.55
2023-07-21T09:36:09.205Z,37.36
2023-07-21T09:37:17.805Z,37.37
2023-07-21T09:38:22.720Z,37.40
2023-07-21T09:39:24.545Z,37.66
2023-07-21T09:40:31.864Z,37.62
2023-07-21T09:41:35.349Z,37.79
2023-07-21T09:42:38.818Z,37.98
2023-07-21T09:43:42.261Z,38.23
2023-07-21T09:44:44.003Z,38.39
2023-07-21T09:45:46.474Z,38.29
2023-07-21T09:46:49.277Z,38.26
2023-07-21T09:47:55.292Z,38.46
2023-07-21T09:48:57.078Z,38.50
2023-07-21T09:50:00.343Z,38.23
2023-07-21T09:51:04.759Z,38.34
2023-07-21T09:52:07.078Z,38.32
2023-07-21T09:53:10.307Z,37.87
2023-07-21T09:54:16.683Z,37.82
2023-07-21T09:55:19.553Z,37.63
2023-07-21T09:56:22.725Z,37.65
2023-07-21T09:57:25.295Z,37.71
2023-07-21T09:58:29.058Z,37.78
2023-07-21T09:59:35.549Z,37.81
2023-07-21T10:00:41.235Z,38.06
2023-07-21T10:01:45.525Z,38.08
2023-07-21T10:02:51.118Z,38.10
2023-07-21T10:03:53.743Z,37.79
2023-07-21T10:04:56.461Z,37.57
2023-07-21T10:05:59.254Z,37.60
2023-07-21T10:07:04.537Z,37.70
2023-07-21T10:08:08.113Z,37.77
2023-07-21T10:09:10.795Z,37.85
2023-07-21T10:10:13.629Z,38.03
2023-07-21T10:11:15.777Z,38.04
2023-07-21T10:12:19.408Z,38.23
2023-07-21T10:13:21.436Z,38.38
2023-07-21T10:14:35.950Z,38.60
2023-07-21T10:15:37.823Z,38.76
2023-07-21T10:16:39.609Z,38.78
2023-07-21T10:17:57.250Z,38.79
2023-07-21T10:19:13.459Z,38.66
2023-07-21T10:20:16.023Z,38.82
2023-07-21T10:21:17.876Z,38.67
2023-07-21T10:22:26.790Z,38.48
2023-07-21T10:23:37.144Z,38.01
2023-07-21T10:24:49.295Z,38.25
2023-07-21T10:26:11.196Z,38.34
2023-07-21T10:27:21.547Z,38.30
2023-07-21T10:28:39.050Z,38.61
2023-07-21T10:29:40.983Z,38.97
2023-07-21T10:30:43.731Z,39.21
2023-07-21T10:31:54.064Z,39.63
2023-07-21T10:32:56.279Z,39.69
2023-07-21T10:34:08.694Z,39.54
2023-07-21T10:35:38.062Z,39.70
2023-07-21T10:36:54.682Z,39.72
2023-07-21T10:38:14.694Z,39.68
2023-07-21T10:39:21.434Z,39.68
2023-07-21T10:40:23.161Z,39.60
2023-07-21T10:41:26.180Z,38.95
2023-07-21T10:42:28.218Z,38.93
2023-07-21T10:43:31.227Z,38.90
2023-07-21T10:44:53.328Z,39.15
2023-07-21T10:45:55.613Z,39.49
2023-07-21T10:46:57.459Z,39.79
2023-07-21T10:48:12.912Z,39.65
2023-07-21T10:49:16.831Z,39.59
2023-07-21T10:50:20.066Z,39.24
2023-07-21T10:51:21.801Z,39.15
2023-07-21T10:52:23.832Z,39.18
2023-07-21T10:53:25.971Z,39.15
2023-07-21T10:54:27.711Z,38.69
2023-07-21T10:55:29.431Z,38.74
2023-07-21T10:56:33.746Z,38.68
2023-07-21T10:57:36.046Z,38.79
2023-07-21T10:58:38.300Z,38.75
2023-07-21T10:59:40.188Z,38.58
2023-07-21T11:00:50.475Z,38.53
2023-07-21T11:01:56.696Z,38.50
2023-07-21T11:02:58.654Z,38.58
2023-07-21T11:04:00.636Z,38.69
2023-07-21T11:05:02.627Z,38.87
2023-07-21T11:06:04.445Z,38.97
2023-07-21T11:07:06.565Z,38.91
2023-07-21T11:08:26.515Z,39.03
2023-07-21T11:09:29.898Z,38.96
2023-07-21T11:10:35.258Z,38.80
2023-07-21T11:11:37.005Z,38.97
2023-07-21T11:12:38.821Z,38.93
2023-07-21T11:13:40.768Z,38.73
2023-07-21T11:14:43.035Z,38.53
2023-07-21T11:15:54.936Z,38.79
2023-07-21T11:17:03.566Z,38.93
2023-07-21T11:18:05.862Z,38.99
2023-07-21T11:19:09.386Z,39.06
2023-07-21T11:20:12.025Z,38.99
2023-07-21T11:21:13.782Z,38.78
2023-07-21T11:22:15.810Z,38.68
2023-07-21T11:23:17.685Z,38.73
2023-07-21T11:24:26.552Z,38.83
2023-07-21T11:25:28.390Z,39.11
2023-07-21T11:26:30.213Z,39.26
2023-07-21T11:27:32.060Z,39.31
2023-07-21T11:28:34.484Z,39.43
2023-07-21T11:29:39.618Z,39.67
2023-07-21T11:30:41.563Z,39.76
2023-07-21T11:31:44.063Z,39.78
2023-07-21T11:32:46.886Z,39.89
2023-07-21T11:33:50.482Z,40.02
2023-07-21T11:35:00.020Z,40.19
2023-07-21T11:36:12.541Z,40.30
2023-07-21T11:37:16.859Z,40.43
2023-07-21T11:38:18.926Z,40.44
2023-07-21T11:39:22.234Z,40.37
2023-07-21T11:40:26.392Z,40.32
2023-07-21T11:41:41.094Z,40.32
2023-07-21T11:42:45.829Z,40.16
2023-07-21T11:43:49.121Z,40.11
2023-07-21T11:44:50.847Z,39.74
2023-07-21T11:45:52.629Z,39.53
2023-07-21T11:47:07.162Z,39.54
2023-07-21T11:48:14.288Z,39.71
2023-07-21T11:49:16.095Z,39.74
2023-07-21T11:50:21.055Z,39.58
2023-07-21T11:51:24.463Z,39.44
2023-07-21T11:52:28.448Z,39.28
2023-07-21T11:53:49.909Z,39.20
2023-07-21T11:54:52.480Z,39.09
2023-07-21T11:55:54.628Z,38.99
2023-07-21T11:56:58.190Z,39.11
2023-07-21T11:57:59.942Z,39.15
2023-07-21T11:59:02.932Z,38.91
2023-07-21T12:00:12.765Z,38.93
2023-07-21T12:01:14.518Z,38.94
2023-07-21T12:02:20.251Z,38.89
2023-07-21T12:03:22.141Z,39.05
2023-07-21T12:04:27.325Z,39.02
2023-07-21T12:05:30.622Z,38.93
2023-07-21T12:06:32.492Z,38.86
2023-07-21T12:07:34.225Z,39.06
2023-07-21T12:08:36.509Z,39.15
2023-07-21T12:09:39.712Z,39.24
2023-07-21T12:10:41.631Z,39.01
2023-07-21T12:13:19.077Z,39.03
2023-07-21T12:14:22.227Z,39.03
2023-07-21T12:15:24.428Z,39.27
2023-07-21T12:16:26.311Z,38.34
2023-07-21T12:17:30.072Z,38.85
2023-07-21T12:18:32.221Z,37.61
2023-07-21T12:19:36.196Z,37.55
2023-07-21T12:20:38.163Z,37.66
2023-07-21T12:21:47.774Z,37.70
2023-07-21T12:22:50.067Z,38.72
2023-07-21T12:23:52.750Z,38.36
2023-07-21T12:24:54.946Z,37.27
2023-07-21T12:25:57.355Z,38.03
2023-07-21T12:26:59.201Z,37.10
2023-07-21T12:28:01.518Z,38.34
2023-07-21T12:29:03.986Z,38.56
2023-07-21T12:30:12.334Z,38.28
2023-07-21T12:31:15.659Z,37.43
2023-07-21T12:32:17.838Z,37.81
2023-07-21T12:33:22.952Z,37.07
2023-07-21T12:34:25.032Z,37.88
2023-07-21T12:35:29.692Z,39.08
2023-07-21T12:36:31.837Z,37.82
2023-07-21T12:37:40.305Z,38.21
2023-07-21T12:38:42.788Z,38.59
2023-07-21T12:39:47.609Z,39.05
2023-07-21T12:40:49.595Z,38.28
2023-07-21T12:41:51.937Z,38.16
2023-07-21T12:42:53.888Z,38.46
2023-07-21T12:43:58.207Z,38.44
2023-07-21T12:44:59.984Z,38.08
2023-07-21T12:46:02.199Z,38.64
2023-07-21T12:47:04.467Z,38.26
2023-07-21T12:48:07.266Z,38.72
2023-07-21T12:49:10.077Z,37.50
2023-07-21T12:50:12.554Z,37.89
2023-07-21T12:51:17.968Z,37.24
2023-07-21T12:52:19.852Z,37.61
2023-07-21T12:53:21.821Z,38.23
2023-07-21T12:54:23.774Z,38.17
2023-07-21T12:55:25.793Z,38.29
2023-07-21T12:56:27.922Z,38.85
2023-07-21T12:57:30.343Z,38.18
2023-07-21T12:58:32.495Z,39.23
2023-07-21T12:59:34.478Z,39.18
2023-07-21T13:00:36.453Z,38.50
2023-07-21T13:01:38.529Z,39.12
2023-07-21T13:02:41.719Z,38.14
2023-07-21T13:03:43.780Z,38.98
2023-07-21T13:04:45.993Z,39.44
2023-07-21T13:05:56.257Z,39.33
2023-07-21T13:06:59.727Z,39.17
2023-07-21T13:08:01.940Z,38.98
2023-07-21T13:09:04.045Z,38.06
2023-07-21T13:10:06.609Z,38.19
2023-07-21T13:11:08.450Z,37.78
2023-07-21T13:12:10.386Z,38.67
2023-07-21T13:13:12.631Z,38.62
2023-07-21T13:14:14.637Z,38.23
2023-07-21T13:15:17.229Z,37.54
2023-07-21T13:16:19.751Z,38.77
2023-07-21T13:17:21.932Z,38.44
2023-07-21T13:18:23.880Z,38.79
2023-07-21T13:19:26.081Z,38.46
2023-07-21T13:20:28.055Z,39.35
2023-07-21T13:21:30.447Z,39.07
2023-07-21T13:22:33.288Z,39.15
2023-07-21T13:23:35.306Z,38.44
2023-07-21T13:24:37.822Z,39.55
2023-07-21T13:25:39.716Z,38.27
2023-07-21T13:26:41.947Z,39.26
2023-07-21T13:27:44.616Z,38.40
2023-07-21T13:28:46.600Z,38.71
2023-07-21T13:29:48.815Z,39.14
2023-07-21T13:30:51.090Z,38.62
2023-07-21T13:31:56.351Z,38.44
2023-07-21T13:32:58.364Z,39.07
2023-07-21T13:34:00.356Z,38.31
2023-07-21T13:35:02.502Z,39.38
2023-07-21T13:36:04.552Z,39.08
2023-07-21T13:37:06.731Z,38.79
2023-07-21T13:38:08.646Z,39.68